createdAt,value
2019-02-06T00:03:31.657Z,88.80
2019-02-06T00:05:59.428Z,87.90
2019-02-06T00:08:28.318Z,86.90
2019-02-06T00:10:56.095Z,86.30
2019-02-06T00:13:23.868Z,87.10
2019-02-06T00:15:52.055Z,86.10
2019-02-06T00:18:19.868Z,86.20
2019-02-06T00:20:47.664Z,86.30
2019-02-06T00:23:15.491Z,87.10
2019-02-06T00:25:55.901Z,86.70
2019-02-06T00:28:23.783Z,88.20
2019-02-06T00:30:52.249Z,86.30
2019-02-06T00:33:20.220Z,86.20
2019-02-06T00:35:48.252Z,86.80
2019-02-06T00:38:16.012Z,87.30
2019-02-06T00:40:43.825Z,87.00
2019-02-06T00:43:11.644Z,87.40
2019-02-06T00:45:39.460Z,86.70
2019-02-06T00:48:07.323Z,87.00
2019-02-06T00:50:35.155Z,86.60
2019-02-06T00:53:03.250Z,86.40
2019-02-06T00:55:31.039Z,87.50
2019-02-06T00:57:58.866Z,86.10
2019-02-06T01:00:26.642Z,85.90
2019-02-06T01:02:54.438Z,87.40
2019-02-06T01:05:22.255Z,86.90
2019-02-06T01:07:50.118Z,87.40
2019-02-06T01:10:18.344Z,86.90
2019-02-06T01:12:46.216Z,86.60
2019-02-06T01:15:14.614Z,87.50
2019-02-06T01:17:42.378Z,88.40
2019-02-06T01:20:12.746Z,89.70
2019-02-06T01:22:40.521Z,90.50
2019-02-06T01:25:11.114Z,90.00
2019-02-06T01:27:38.986Z,89.10
2019-02-06T01:30:13.681Z,88.90
2019-02-06T01:32:41.458Z,89.60
2019-02-06T01:35:10.715Z,89.60
2019-02-06T01:37:38.469Z,89.80
2019-02-06T01:40:07.062Z,89.40
2019-02-06T01:42:35.005Z,89.70
2019-02-06T01:45:03.493Z,90.10
2019-02-06T01:47:31.526Z,89.60
2019-02-06T01:49:59.312Z,89.10
2019-02-06T01:52:27.077Z,89.50
2019-02-06T01:54:55.007Z,89.10
2019-02-06T01:57:22.865Z,89.80
2019-02-06T01:59:50.685Z,89.30
2019-02-06T02:02:18.436Z,88.90
2019-02-06T02:04:46.663Z,88.70
2019-02-06T02:07:14.622Z,88.20
2019-02-06T02:09:42.466Z,88.10
2019-02-06T02:12:10.527Z,88.10
2019-02-06T02:14:38.340Z,88.10
2019-02-06T02:17:06.231Z,87.90
2019-02-06T02:19:33.954Z,87.50
2019-02-06T02:22:01.717Z,88.30
2019-02-06T02:24:29.514Z,88.00
2019-02-06T02:26:57.318Z,88.00
2019-02-06T02:29:25.324Z,87.40
2019-02-06T02:31:53.221Z,88.70
2019-02-06T02:34:21.009Z,87.90
2019-02-06T02:36:48.748Z,87.90
2019-02-06T02:39:16.560Z,86.70
2019-02-06T02:41:44.383Z,86.20
2019-02-06T02:44:12.181Z,86.30
2019-02-06T02:46:39.999Z,87.00
2019-02-06T02:49:07.813Z,87.70
2019-02-06T02:51:35.602Z,87.90
2019-02-06T02:54:03.955Z,87.70
2019-02-06T02:56:31.762Z,88.30
2019-02-06T02:58:59.559Z,87.80
2019-02-06T03:01:44.661Z,88.70
2019-02-06T03:04:32.044Z,89.60
2019-02-06T03:06:59.916Z,88.60
2019-02-06T03:09:27.747Z,88.10
2019-02-06T03:11:55.837Z,87.60
2019-02-06T03:14:23.620Z,88.00
2019-02-06T03:16:51.453Z,87.60
2019-02-06T03:19:19.843Z,87.80
2019-02-06T03:21:47.605Z,86.90
2019-02-06T03:24:15.466Z,87.10
2019-02-06T03:26:43.272Z,87.50
2019-02-06T03:29:11.468Z,88.60
2019-02-06T03:31:39.242Z,90.10
2019-02-06T03:34:07.022Z,90.60
2019-02-06T03:36:40.428Z,90.00
2019-02-06T03:39:24.514Z,89.20
2019-02-06T03:42:04.687Z,89.10
2019-02-06T03:44:32.811Z,89.80
2019-02-06T03:47:01.010Z,89.10
2019-02-06T03:49:28.811Z,89.20
2019-02-06T03:51:56.677Z,88.60
2019-02-06T03:54:24.493Z,87.60
2019-02-06T03:56:52.679Z,87.60
2019-02-06T03:59:20.487Z,87.30
2019-02-06T04:01:48.250Z,87.10
2019-02-06T04:04:16.078Z,87.60
2019-02-06T04:06:54.928Z,87.60
2019-02-06T04:09:18.626Z,86.70
2019-02-06T04:11:46.730Z,87.50
2019-02-06T04:14:14.567Z,87.40
2019-02-06T04:16:42.488Z,87.90
2019-02-06T04:19:10.317Z,87.40
2019-02-06T04:21:38.156Z,87.40
2019-02-06T04:24:28.554Z,87.40
2019-02-06T04:26:56.389Z,86.90
2019-02-06T04:29:24.215Z,85.70
2019-02-06T04:31:51.974Z,87.10
2019-02-06T04:34:19.785Z,86.70
2019-02-06T04:36:47.597Z,85.00
2019-02-06T04:39:15.420Z,85.20
2019-02-06T04:41:43.261Z,85.40
2019-02-06T04:44:11.068Z,85.20
2019-02-06T04:46:38.857Z,85.10
2019-02-06T04:49:06.671Z,85.20
2019-02-06T04:51:37.387Z,85.60
2019-02-06T04:54:07.046Z,85.70
2019-02-06T04:56:39.164Z,86.30
2019-02-06T04:59:07.047Z,86.20
2019-02-06T05:01:34.836Z,86.40
2019-02-06T05:04:02.737Z,87.10
2019-02-06T05:06:30.510Z,87.90
2019-02-06T05:08:58.369Z,87.70
2019-02-06T05:11:26.178Z,87.70
2019-02-06T05:13:54.641Z,87.80
2019-02-06T05:16:22.463Z,88.00
2019-02-06T05:18:50.281Z,87.90
2019-02-06T05:21:18.068Z,87.90
2019-02-06T05:23:45.887Z,88.00
2019-02-06T05:26:13.739Z,88.00
2019-02-06T05:28:41.563Z,88.00
2019-02-06T05:31:09.805Z,88.10
2019-02-06T05:33:37.626Z,88.20
2019-02-06T05:36:05.620Z,88.20
2019-02-06T05:38:33.382Z,88.30
2019-02-06T05:41:01.195Z,88.60
2019-02-06T05:43:28.978Z,88.30
2019-02-06T05:45:56.897Z,87.40
2019-02-06T05:48:24.675Z,87.60
2019-02-06T05:50:52.509Z,87.80
2019-02-06T05:53:20.313Z,86.80
2019-02-06T05:55:48.446Z,87.00
2019-02-06T05:58:16.203Z,85.30
2019-02-06T06:00:51.524Z,85.20
2019-02-06T06:03:19.352Z,85.70
2019-02-06T06:05:47.824Z,85.30
2019-02-06T06:08:17.524Z,84.80
2019-02-06T06:10:45.358Z,84.60
2019-02-06T06:13:14.122Z,83.50
2019-02-06T06:15:41.913Z,83.70
2019-02-06T06:18:09.820Z,83.60
2019-02-06T06:20:43.254Z,84.60
2019-02-06T06:23:11.781Z,84.40
2019-02-06T06:25:51.688Z,84.00
2019-02-06T06:28:21.563Z,83.50
2019-02-06T06:30:49.395Z,84.50
2019-02-06T06:33:17.234Z,84.00
2019-02-06T06:35:44.968Z,84.20
2019-02-06T06:38:29.029Z,85.30
2019-02-06T06:40:56.876Z,85.60
2019-02-06T06:43:24.753Z,85.10
2019-02-06T06:45:57.809Z,85.30
2019-02-06T06:48:25.667Z,84.30
2019-02-06T06:50:53.464Z,83.90
2019-02-06T06:53:21.302Z,83.60
2019-02-06T06:55:49.155Z,84.60
2019-02-06T06:58:16.952Z,84.90
2019-02-06T07:01:05.849Z,84.80
2019-02-06T07:03:33.570Z,84.80
2019-02-06T07:06:01.384Z,84.40
2019-02-06T07:08:29.166Z,85.80
2019-02-06T07:10:57.056Z,85.60
2019-02-06T07:13:24.909Z,86.00
2019-02-06T07:15:54.140Z,85.60
2019-02-06T07:18:24.781Z,85.40
2019-02-06T07:20:53.497Z,85.20
2019-02-06T07:23:21.426Z,85.00
2019-02-06T07:25:49.406Z,85.30
2019-02-06T07:28:17.184Z,84.70
2019-02-06T07:30:44.965Z,85.00
2019-02-06T07:33:12.815Z,85.00
2019-02-06T07:35:44.168Z,85.10
2019-02-06T07:38:23.647Z,84.40
2019-02-06T07:40:41.640Z,85.00
2019-02-06T07:43:09.481Z,84.40
2019-02-06T07:45:37.336Z,84.50
2019-02-06T07:48:05.125Z,85.40
2019-02-06T07:50:33.719Z,85.40
2019-02-06T07:53:20.973Z,84.60
2019-02-06T07:55:48.754Z,85.10
2019-02-06T07:58:16.598Z,84.60
2019-02-06T08:00:44.347Z,83.70
2019-02-06T08:03:12.109Z,83.50
2019-02-06T08:05:39.919Z,83.70
2019-02-06T08:08:07.731Z,83.50
2019-02-06T08:10:35.488Z,84.10
2019-02-06T08:13:04.587Z,83.60
2019-02-06T08:15:32.411Z,81.60
2019-02-06T08:18:00.322Z,82.30
2019-02-06T08:20:28.162Z,81.20
2019-02-06T08:22:56.323Z,81.30
2019-02-06T08:25:24.556Z,80.80
2019-02-06T08:27:52.854Z,80.90
2019-02-06T08:30:34.030Z,80.50
2019-02-06T08:33:01.973Z,78.80
2019-02-06T08:35:30.404Z,78.80
2019-02-06T08:37:58.213Z,78.80
2019-02-06T08:40:26.872Z,79.30
2019-02-06T08:42:54.771Z,79.00
2019-02-06T08:45:22.561Z,78.60
2019-02-06T08:48:09.855Z,78.60
2019-02-06T08:50:37.602Z,79.60
2019-02-06T08:53:05.424Z,78.50
2019-02-06T08:55:33.391Z,77.90
2019-02-06T09:00:41.037Z,78.20
2019-02-06T09:03:10.291Z,77.80
2019-02-06T09:05:38.040Z,77.60
2019-02-06T09:08:06.351Z,78.40
2019-02-06T09:10:34.360Z,77.60
2019-02-06T09:13:02.433Z,78.00
2019-02-06T09:15:30.251Z,77.50
2019-02-06T09:17:58.057Z,76.40
2019-02-06T09:20:26.961Z,76.40
2019-02-06T09:22:54.854Z,76.90
2019-02-06T09:25:23.236Z,76.70
2019-02-06T09:27:51.413Z,76.70
2019-02-06T09:30:22.663Z,76.40
2019-02-06T09:32:50.448Z,76.50
2019-02-06T09:35:18.220Z,75.20
2019-02-06T09:37:46.112Z,76.30
2019-02-06T09:40:16.458Z,75.10
2019-02-06T09:42:44.543Z,74.80
2019-02-06T09:45:13.070Z,74.10
2019-02-06T09:47:45.906Z,74.20
2019-02-06T09:50:18.505Z,73.20
2019-02-06T09:52:46.271Z,72.70
2019-02-06T09:55:14.161Z,72.70
2019-02-06T09:57:41.984Z,71.40
2019-02-06T10:00:18.305Z,72.30
2019-02-06T10:02:46.096Z,71.20
2019-02-06T10:05:14.078Z,70.50
2019-02-06T10:07:42.436Z,71.20
2019-02-06T10:10:15.266Z,71.40
2019-02-06T10:12:43.649Z,70.20
2019-02-06T10:15:16.384Z,70.50
2019-02-06T10:17:44.210Z,70.70
2019-02-06T10:20:14.517Z,70.00
2019-02-06T10:22:42.327Z,68.60
2019-02-06T10:25:10.329Z,68.70
2019-02-06T10:27:38.194Z,68.40
2019-02-06T10:30:12.318Z,67.50
2019-02-06T10:32:40.158Z,68.50
2019-02-06T10:35:08.130Z,69.10
2019-02-06T10:37:41.246Z,68.70
2019-02-06T10:40:09.139Z,67.80
2019-02-06T10:42:36.931Z,67.20
2019-02-06T10:45:05.619Z,66.40
2019-02-06T10:47:33.461Z,65.80
2019-02-06T10:50:01.274Z,65.40
2019-02-06T10:52:32.309Z,64.10
2019-02-06T10:55:04.269Z,64.60
2019-02-06T10:57:32.188Z,64.80
2019-02-06T11:00:00.037Z,62.70
2019-02-06T11:02:27.946Z,61.60
2019-02-06T11:04:55.738Z,60.70
2019-02-06T11:07:23.586Z,60.60
2019-02-06T11:09:51.673Z,60.60
2019-02-06T11:12:19.408Z,60.10
2019-02-06T11:14:47.208Z,59.00
2019-02-06T11:17:15.001Z,58.40
2019-02-06T11:19:43.275Z,58.20
2019-02-06T11:22:11.262Z,58.00
2019-02-06T11:24:39.098Z,57.30
2019-02-06T11:27:07.583Z,56.80
2019-02-06T11:29:35.364Z,56.40
2019-02-06T11:32:03.179Z,55.90
2019-02-06T11:34:31.006Z,54.80
2019-02-06T11:36:58.800Z,53.80
2019-02-06T11:39:26.579Z,51.60
2019-02-06T11:41:54.339Z,50.40
2019-02-06T11:44:22.192Z,48.90
2019-02-06T11:46:50.006Z,47.90
2019-02-06T11:49:20.938Z,44.90
2019-02-06T11:51:48.784Z,42.30
2019-02-06T11:54:16.560Z,39.50
2019-02-06T11:56:44.349Z,39.20
2019-02-06T11:59:12.521Z,37.00
2019-02-06T12:01:44.960Z,36.70
2019-02-06T12:04:14.543Z,36.60
2019-02-06T12:06:42.360Z,34.90
2019-02-06T12:09:12.491Z,32.90
2019-02-06T12:11:40.294Z,33.00
2019-02-06T12:14:08.119Z,31.80
2019-02-06T12:16:36.271Z,30.70
2019-02-06T12:19:04.321Z,30.00
2019-02-06T12:21:32.134Z,29.80
2019-02-06T12:23:59.924Z,29.80
2019-02-06T12:26:27.733Z,29.50
2019-02-06T12:28:55.572Z,29.60
2019-02-06T12:31:23.408Z,29.60
2019-02-06T12:33:51.525Z,29.50
2019-02-06T12:36:19.361Z,29.10
2019-02-06T12:38:53.422Z,30.00
2019-02-06T12:41:16.835Z,30.20
2019-02-06T12:43:44.712Z,30.60
2019-02-06T12:46:12.625Z,31.40
2019-02-06T12:48:40.421Z,31.30
2019-02-06T12:51:08.184Z,33.70
2019-02-06T12:53:36.608Z,34.70
2019-02-06T12:56:04.742Z,34.50
2019-02-06T12:58:32.528Z,35.00
2019-02-06T13:01:00.316Z,35.70
2019-02-06T13:03:28.117Z,36.00
2019-02-06T13:05:55.977Z,36.90
2019-02-06T13:08:23.817Z,37.00
2019-02-06T13:10:51.624Z,36.70
2019-02-06T13:13:19.436Z,36.00
2019-02-06T13:15:47.602Z,35.30
2019-02-06T13:18:15.484Z,36.00
2019-02-06T13:20:43.253Z,34.80
2019-02-06T13:23:11.088Z,34.00
2019-02-06T13:25:38.948Z,34.00
2019-02-06T13:28:06.714Z,34.60
2019-02-06T13:30:35.663Z,34.80
2019-02-06T13:33:04.935Z,34.50
2019-02-06T13:35:32.774Z,32.90
2019-02-06T13:38:00.562Z,31.80
2019-02-06T13:40:28.373Z,31.30
2019-02-06T13:42:56.804Z,32.00
2019-02-06T13:45:28.431Z,33.60
2019-02-06T13:47:56.209Z,34.50
2019-02-06T13:50:24.552Z,35.50
2019-02-06T13:52:52.363Z,35.50
2019-02-06T13:55:20.209Z,35.80
2019-02-06T13:57:48.188Z,36.10
2019-02-06T14:00:19.604Z,35.40
2019-02-06T14:02:48.244Z,35.10
2019-02-06T14:05:17.241Z,35.50
2019-02-06T14:07:44.982Z,35.30
2019-02-06T14:10:14.965Z,35.10
2019-02-06T14:12:42.749Z,34.10
2019-02-06T14:15:13.867Z,33.70
2019-02-06T14:17:41.884Z,33.90
2019-02-06T14:20:14.145Z,33.80
2019-02-06T14:22:42.064Z,34.50
2019-02-06T14:25:28.211Z,32.20
2019-02-06T14:28:47.724Z,32.20
2019-02-06T14:32:01.464Z,32.40
2019-02-06T14:35:07.469Z,32.20
2019-02-06T14:38:41.398Z,31.60
2019-02-06T14:42:34.003Z,31.30
2019-02-06T14:46:03.697Z,31.30
2019-02-06T14:49:14.078Z,32.80
2019-02-06T14:52:59.887Z,34.00
2019-02-06T14:56:39.346Z,35.10
2019-02-06T15:00:09.723Z,36.40
2019-02-06T15:03:24.095Z,37.40
2019-02-06T15:06:33.229Z,39.80
2019-02-06T15:09:48.458Z,40.80
2019-02-06T15:13:15.336Z,40.60
2019-02-06T15:16:37.091Z,41.00
2019-02-06T15:19:56.405Z,41.80
2019-02-06T15:23:32.939Z,42.40
2019-02-06T15:26:37.423Z,43.40
2019-02-06T15:29:41.980Z,44.20
2019-02-06T15:33:26.947Z,44.60
2019-02-06T15:36:59.810Z,45.30
2019-02-06T15:40:23.974Z,46.00
2019-02-06T15:43:37.837Z,45.80
2019-02-06T15:47:01.804Z,47.50
2019-02-06T15:50:33.608Z,48.60
2019-02-06T15:53:48.426Z,49.40
2019-02-06T15:57:37.730Z,50.30
2019-02-06T16:00:51.003Z,50.30
2019-02-06T16:04:24.202Z,50.70
2019-02-06T16:08:00.137Z,51.60
2019-02-06T16:11:28.502Z,52.50
2019-02-06T16:14:52.860Z,53.30
2019-02-06T16:18:01.874Z,54.30
2019-02-06T16:21:20.272Z,54.50
2019-02-06T16:24:59.222Z,55.60
2019-02-06T16:28:34.810Z,54.30
2019-02-06T16:31:46.688Z,57.30
2019-02-06T16:35:21.420Z,58.40
2019-02-06T16:42:20.829Z,58.90
2019-02-06T16:45:34.602Z,60.00
2019-02-06T16:48:57.164Z,59.70
2019-02-06T16:52:05.683Z,59.30
2019-02-06T16:55:32.458Z,60.00
2019-02-06T16:58:39.015Z,61.00
2019-02-06T17:01:55.701Z,62.10
2019-02-06T17:04:38.117Z,62.60
2019-02-06T17:08:02.165Z,63.60
2019-02-06T17:11:38.502Z,63.50
2019-02-06T17:15:15.639Z,63.50
2019-02-06T17:18:39.322Z,64.50
2019-02-06T17:21:53.685Z,64.40
2019-02-06T17:25:33.954Z,64.90
2019-02-06T17:29:03.693Z,65.60
2019-02-06T17:32:31.481Z,65.80
2019-02-06T17:35:37.913Z,67.10
2019-02-06T17:39:43.227Z,67.00
2019-02-06T17:43:02.822Z,67.30
2019-02-06T17:46:30.418Z,68.70
2019-02-06T17:50:00.303Z,68.30
2019-02-06T17:53:05.574Z,70.80
2019-02-06T17:55:33.496Z,70.00
2019-02-06T17:58:05.732Z,70.30
2019-02-06T18:01:09.331Z,70.90
2019-02-06T18:04:04.551Z,71.70
2019-02-06T18:06:32.624Z,70.50
2019-02-06T18:09:08.993Z,71.80
2019-02-06T18:11:36.907Z,72.00
2019-02-06T18:14:05.747Z,72.30
2019-02-06T18:16:33.660Z,73.20
2019-02-06T18:19:01.666Z,72.40
2019-02-06T18:21:29.507Z,73.40
2019-02-06T18:23:57.372Z,73.30
2019-02-06T18:26:28.207Z,74.00
2019-02-06T18:28:55.994Z,73.30
2019-02-06T18:31:24.667Z,73.50
2019-02-06T18:33:55.755Z,72.60
2019-02-06T18:36:27.051Z,72.50
2019-02-06T18:38:54.955Z,73.10
2019-02-06T18:41:22.928Z,73.10
2019-02-06T18:43:50.755Z,73.20
2019-02-06T18:46:24.172Z,72.60
2019-02-06T18:48:59.650Z,73.10
2019-02-06T18:51:27.495Z,73.10
2019-02-06T18:53:56.218Z,73.10
2019-02-06T18:56:26.981Z,73.00
2019-02-06T18:58:54.884Z,72.90
2019-02-06T19:01:24.253Z,73.60
2019-02-06T19:03:54.959Z,73.00
2019-02-06T19:06:25.878Z,73.20
2019-02-06T19:09:03.461Z,73.00
2019-02-06T19:11:32.917Z,73.00
2019-02-06T19:14:01.059Z,73.70
2019-02-06T19:16:31.986Z,75.40
2019-02-06T19:19:00.082Z,76.60
2019-02-06T19:21:28.024Z,74.90
2019-02-06T19:23:55.944Z,74.40
2019-02-06T19:26:24.018Z,74.90
2019-02-06T19:28:51.803Z,74.60
2019-02-06T19:31:20.566Z,76.10
2019-02-06T19:33:49.136Z,75.60
2019-02-06T19:36:38.593Z,75.80
2019-02-06T19:39:09.289Z,77.70
2019-02-06T19:41:37.976Z,77.20
2019-02-06T19:44:06.715Z,77.00
2019-02-06T19:46:35.341Z,76.60
2019-02-06T19:49:04.262Z,76.40
2019-02-06T19:51:32.765Z,78.00
2019-02-06T19:54:01.026Z,78.40
2019-02-06T19:56:29.632Z,77.80
2019-02-06T19:58:58.122Z,77.70
2019-02-06T20:01:26.308Z,78.70
2019-02-06T20:03:54.806Z,79.50
2019-02-06T20:06:30.027Z,80.80
2019-02-06T20:09:16.383Z,80.70
2019-02-06T20:11:47.428Z,81.10
2019-02-06T20:14:15.828Z,81.60
2019-02-06T20:16:44.291Z,81.30
2019-02-06T20:19:12.935Z,82.10
2019-02-06T20:21:41.175Z,82.60
2019-02-06T20:24:09.421Z,82.50
2019-02-06T20:26:37.394Z,81.80
2019-02-06T20:29:05.346Z,81.60
2019-02-06T20:31:33.148Z,82.80
2019-02-06T20:34:01.069Z,82.50
2019-02-06T20:36:48.470Z,81.50
2019-02-06T20:39:16.388Z,81.30
2019-02-06T20:41:44.350Z,81.60
2019-02-06T20:44:12.197Z,81.10
2019-02-06T20:46:40.251Z,82.00
2019-02-06T20:49:08.322Z,82.00
2019-02-06T20:51:36.099Z,82.00
2019-02-06T20:54:04.314Z,82.30
2019-02-06T20:56:32.139Z,80.70
2019-02-06T20:58:59.939Z,81.20
2019-02-06T21:01:27.951Z,82.60
2019-02-06T21:03:56.721Z,80.70
2019-02-06T21:06:25.587Z,80.90
2019-02-06T21:08:53.692Z,82.90
2019-02-06T21:11:21.560Z,82.80
2019-02-06T21:13:49.732Z,84.20
2019-02-06T21:16:17.505Z,84.60
2019-02-06T21:18:45.327Z,84.30
2019-02-06T21:21:13.217Z,83.70
2019-02-06T21:23:41.119Z,83.60
2019-02-06T21:26:08.914Z,84.00
2019-02-06T21:28:36.759Z,85.00
2019-02-06T21:31:04.904Z,85.20
2019-02-06T21:33:33.150Z,85.10
2019-02-06T21:36:02.611Z,84.80
2019-02-06T21:38:30.425Z,84.00
2019-02-06T21:40:58.234Z,84.80
2019-02-06T21:43:26.021Z,84.00
2019-02-06T21:45:53.989Z,85.00
2019-02-06T21:48:22.467Z,84.60
2019-02-06T21:50:50.503Z,83.80
2019-02-06T21:53:18.412Z,84.00
2019-02-06T21:55:46.298Z,84.00
2019-02-06T21:58:14.113Z,82.30
2019-02-06T22:00:42.115Z,82.30
2019-02-06T22:03:10.753Z,82.30
2019-02-06T22:05:39.205Z,82.20
2019-02-06T22:08:06.997Z,82.10
2019-02-06T22:10:34.852Z,82.20
2019-02-06T22:13:02.616Z,82.10
2019-02-06T22:15:30.568Z,81.80
2019-02-06T22:17:58.555Z,82.10
2019-02-06T22:20:26.748Z,82.40
2019-02-06T22:22:54.578Z,82.40
2019-02-06T22:25:27.600Z,82.50
2019-02-06T22:27:55.437Z,82.10
2019-02-06T22:30:25.577Z,81.40
2019-02-06T22:32:53.388Z,82.00
2019-02-06T22:35:21.738Z,82.30
2019-02-06T22:37:49.667Z,82.00
2019-02-06T22:40:19.788Z,81.90
2019-02-06T22:42:47.628Z,82.50
2019-02-06T22:45:18.597Z,83.20
2019-02-06T22:47:46.397Z,82.60
2019-02-06T22:50:16.868Z,83.00
2019-02-06T22:52:44.995Z,82.80
2019-02-06T22:55:13.069Z,83.10
2019-02-06T22:58:05.405Z,82.90
2019-02-06T23:01:21.307Z,82.90
2019-02-06T23:03:49.392Z,85.20
2019-02-06T23:06:17.176Z,83.90
2019-02-06T23:08:45.000Z,83.90
2019-02-06T23:11:12.837Z,84.00
2019-02-06T23:13:40.750Z,85.70
2019-02-06T23:16:08.719Z,84.00
2019-02-06T23:18:36.568Z,84.20
2019-02-06T23:21:04.982Z,83.60
2019-02-06T23:23:33.299Z,84.50
2019-02-06T23:26:06.542Z,85.20
2019-02-06T23:28:34.357Z,85.30
2019-02-06T23:31:02.167Z,85.80
2019-02-06T23:33:29.967Z,85.70
2019-02-06T23:35:57.915Z,86.50
2019-02-06T23:38:25.726Z,86.60
2019-02-06T23:40:53.613Z,86.60
2019-02-06T23:43:21.435Z,86.10
2019-02-06T23:45:49.274Z,85.50
2019-02-06T23:48:17.066Z,85.50
2019-02-06T23:50:44.911Z,85.90
2019-02-06T23:53:12.720Z,85.90
2019-02-06T23:55:41.084Z,87.00
2019-02-06T23:58:08.899Z,86.50
